Hauptseite
METAR-TAF:

METAR-TAF

Flughäfen :

Flughafen Comiso

Comiso, Italien

Breite: 36-59-30N, Länge: 14-36-25E, Höhe: 190 m

Beobachtung

Neuester Wetterbericht von vor 26 Minuten, um 07:50 UTC
Wind 1 kt aus unterschiedlichen Richtungen
Temperatur 13°C
Luftfeuchtigkeit 67%
Luftdruck 1029 hPa
Sichtweite 10 km oder mehr
keine Wolken unter 1500 m und keine Kumulonimbus oder Gewitterwolken

METAR: LICB 240750Z VRB01KT CAVOK 13/07 Q1029

Zeit: 09:16 (08:16 UTC)

Prognose

Neuester Wetterbericht von vor 3 Stunden und 16 Minuten, um 05:00 UTC
Gültige Prognose vom 24 um 06 UTC bis 24 um 15 UTC
Wind 5 kt aus unterschiedlichen Richtungen
Sichtweite 10 km oder mehr
Durchbrochene Bewölkung in der Höhe von 3000 ft

TAF: LICB 240500Z 2406/2415 VRB05KT 9999 BKN030

Wetterbeobachtungen und Prognosen von mehr als 4000 Flughäfen (METAR und TAF Bericht).

Die verfügbaren Stationen werden durch gelbe und rote Markierungen auf der Karte dargestellt.

Führen Sie die Maus auf sie, um den Namen der Station zu sehen.

Darauf klicken, um die Beobachtung von Wetterbeobachtungen und Prognosen zu sehen.

Um die Karte zu ändern : klicken Sie auf den grünen Tasten mit einem schwarzen Kreuz Zum Vergrößern, auf den grünen Button mit einem Gedankenstrich zu verkleinern, oder auf die grünen Pfeile für benachbarte Karten.


METAR-TAF: